EW4785 Weather Reports


Display with metric or nautical units.
time (UTC)temp
F
wind
direction
speed
MPH
gust
MPH
rain 1hr
in
rain 24hr
in
rain mn
in
humidity
%
barometer
mb
20230201124512 38 57 1.0 6.0 0.00 0.23 0.16 97 1022.4
20230201123013 38 31 2.0 6.0 0.00 0.23 0.16 97 1022.2
20230201121508 38 346 1.0 5.0 0.01 0.23 0.16 97 1022.2
20230201120008 38 45 0.0 6.0 0.02 0.23 0.16 97 1021.1
20230201114503 38 17 1.0 5.0 0.03 0.23 0.16 97 1021.0
20230201113003 38 24 1.0 6.0 0.03 0.23 0.16 97 1021.1
20230201111614 38 347 1.0 8.0 0.03 0.22 0.15 97 1020.8
20230201110114 39 9 2.0 6.0 0.02 0.21 0.14 97 1020.3
20230201104629 39 40 2.0 4.0 0.02 0.20 0.13 97 1020.1
20230201103105 39 29 1.0 5.0 0.04 0.20 0.13 97 1019.4
20230201101555 39 19 0.0 2.0 0.03 0.19 0.12 97 1019.5
20230201100053 39 43 1.0 5.0 0.04 0.19 0.12 97 1019.8
20230201094552 39 344 0.0 5.0 0.03 0.18 0.11 97 1019.5
20230201093052 39 15 0.0 4.0 0.02 0.16 0.09 97 1019.8
20230201091550 39 355 0.0 3.0 0.02 0.16 0.09 97 1018.7
20230201090044 40 53 0.0 3.0 0.03 0.15 0.08 97 1018.5
20230201084545 40 11 0.0 3.0 0.05 0.15 0.08 97 1018.4
20230201083045 40 46 1.0 5.0 0.05 0.14 0.07 97 1018.5
20230201081547 40 44 2.0 8.0 0.05 0.14 0.07 97 1018.3
20230201080037 40 9 2.0 6.0 0.03 0.11 0.04 97 1019.2
20230201074534 41 47 2.0 6.0 0.02 0.10 0.03 96 1019.0
20230201073038 42 5 2.0 9.0 0.01 0.09 0.02 96 1018.9
20230201071535 43 5 0.0 5.0 0.02 0.09 0.02 97 1018.6
20230201070032 44 5 2.0 4.0 0.01 0.08 0.01 97 1018.5
20230201064524 45 10 1.0 3.0 0.01 0.08 0.01 97 1018.6
20230201063018 46 360 2.0 6.0 0.01 0.08 0.01 97 1018.7
20230201061515 47 61 1.0 4.0 0.00 0.07 0.00 97 1018.9
20230201060012 48 40 0.0 4.0 0.00 0.07 0.00 97 1018.8
20230201054507 50 360 2.0 5.0 0.00 0.07 0.00 96 1018.6
20230201053004 53 268 0.0 2.0 0.00 0.07 0.00 98 1018.9
20230201051503 53 237 0.0 0.0 0.00 0.07 0.00 98 1019.1
20230201050104 53 237 0.0 1.0 0.00 0.07 0.00 98 1018.6
20230201044614 53 237 0.0 0.0 0.00 0.07 0.07 98 1019.0
20230201043059 53 237 0.0 0.0 0.00 0.07 0.07 98 1018.8
20230201041603 53 237 0.0 0.0 0.00 0.07 0.07 98 1019.1
20230201040107 53 237 0.0 0.0 0.00 0.07 0.07 98 1019.1
20230201034559 53 237 0.0 1.0 0.00 0.07 0.07 98 1019.0
20230201033102 53 237 0.0 1.0 0.00 0.07 0.07 98 1019.2
20230201031556 53 237 0.0 0.0 0.00 0.07 0.07 98 1019.4
20230201030058 53 237 0.0 0.0 0.00 0.07 0.07 98 1019.5
20230201024558 53 237 0.0 0.0 0.00 0.07 0.07 98 1019.7
20230201023054 53 237 0.0 0.0 0.00 0.07 0.07 98 1019.5
20230201021603 53 237 0.0 0.0 0.00 0.07 0.07 98 1019.7
20230201020056 53 237 0.0 0.0 0.00 0.07 0.07 98 1019.5
20230201014635 53 237 0.0 0.0 0.00 0.07 0.07 98 1019.5
20230201014515 53 237 0.0 0.0 0.00 0.07 0.07 98 1019.5
20230201013052 53 237 0.0 0.0 0.00 0.07 0.07 98 1019.5
20230201011553 53 237 0.0 1.0 0.00 0.07 0.07 98 1019.5
20230201010058 53 237 0.0 0.0 0.00 0.07 0.07 98 1019.7
20230201004556 54 237 0.0 1.0 0.00 0.07 0.07 98 1019.7
20230201003050 54 237 0.0 1.0 0.00 0.07 0.07 98 1019.5
20230201001553 54 237 0.0 1.0 0.01 0.07 0.07 98 1019.7
20230201000049 54 237 0.0 1.0 0.01 0.07 0.07 98 1019.9
20230131234548 54 237 0.0 2.0 0.01 0.07 0.07 98 1019.9
20230131233045 54 288 0.0 1.0 0.01 0.07 0.07 97 1020.2
20230131231545 54 288 0.0 0.0 0.00 0.06 0.06 97 1019.6
20230131230054 54 288 0.0 1.0 0.00 0.06 0.06 98 1019.5
20230131224541 54 288 0.0 2.0 0.00 0.06 0.06 97 1019.7
20230131223041 54 288 0.0 2.0 0.00 0.06 0.06 97 1019.4
20230131221542 54 218 0.0 2.0 0.00 0.06 0.06 97 1018.8
20230131220041 54 174 1.0 3.0 0.00 0.06 0.06 97 1018.7
20230131214540 54 214 1.0 3.0 0.00 0.06 0.06 97 1018.3
20230131213040 54 133 1.0 4.0 0.00 0.06 0.06 97 1018.1
20230131211541 54 209 1.0 3.0 0.00 0.06 0.06 97 1018.7
20230131210037 54 185 0.0 3.0 0.00 0.06 0.06 97 1018.7
20230131204537 54 303 0.0 2.0 0.00 0.06 0.06 97 1019.3
20230131203039 54 307 1.0 3.0 0.00 0.06 0.06 97 1018.9
20230131201542 54 178 0.0 4.0 0.01 0.06 0.06 98 1018.8
20230131200054 54 138 0.0 4.0 0.01 0.06 0.06 98 1018.5
20230131194535 54 190 0.0 3.0 0.02 0.06 0.06 98 1018.6
20230131193047 54 196 1.0 4.0 0.03 0.06 0.06 98 1018.9
20230131191546 54 186 0.0 4.0 0.04 0.05 0.05 97 1018.8
20230131190043 54 200 1.0 3.0 0.05 0.05 0.05 98 1019.2
20230131184528 54 192 0.0 2.0 0.04 0.04 0.04 98 1019.2
20230131183025 54 247 0.0 2.0 0.03 0.03 0.03 98 1019.6
20230131181523 53 202 0.0 3.0 0.01 0.01 0.01 98 1020.2
20230131180024 53 236 1.0 6.0 0.00 0.00 0.00 98 1020.7
20230131174520 53 229 2.0 5.0 0.00 0.00 0.00 98 1020.9
20230131173019 53 196 0.0 2.0 0.00 0.00 0.00 98 1020.7
20230131171518 53 177 1.0 4.0 0.00 0.00 0.00 98 1020.9
20230131170018 53 171 2.0 7.0 0.00 0.00 0.00 98 1021.1
20230131164518 53 186 1.0 7.0 0.00 0.00 0.00 98 1021.7
20230131163020 53 207 2.0 5.0 0.00 0.00 0.00 98 1022.1
20230131161520 53 198 1.0 4.0 0.00 0.00 0.00 98 1021.8
20230131160015 53 227 2.0 4.0 0.00 0.00 0.00 98 1021.9
20230131154514 53 185 1.0 6.0 0.00 0.00 0.00 98 1021.7
20230131153017 52 184 2.0 6.0 0.00 0.00 0.00 98 1021.8
20230131151512 52 189 3.0 8.0 0.00 0.00 0.00 98 1021.6
20230131150010 52 140 1.0 5.0 0.00 0.00 0.00 98 1021.5
20230131144509 52 209 2.0 4.0 0.00 0.00 0.00 98 1021.6
20230131143012 51 186 1.0 3.0 0.00 0.00 0.00 98 1021.6
20230131141509 51 183 2.0 5.0 0.00 0.00 0.00 98 1021.7
20230131140004 51 194 1.0 4.0 0.00 0.00 0.00 98 1021.6
20230131134503 51 200 1.0 4.0 0.00 0.00 0.00 98 1021.5
20230131133002 50 169 1.0 4.0 0.00 0.00 0.00 98 1021.5
20230131131600 50 175 1.0 3.0 0.00 0.00 0.00 98 1021.2
20230131130113 50 174 1.0 3.0 0.00 0.00 0.00 98 1021.0